createdAt,value
2017-01-18T00:00:13.162Z,1009.34
2017-01-18T00:00:53.747Z,1009.36
2017-01-18T00:01:34.444Z,1009.36
2017-01-18T00:02:15.131Z,1009.33
2017-01-18T00:02:55.780Z,1009.33
2017-01-18T00:03:36.494Z,1009.39
2017-01-18T00:04:17.146Z,1009.37
2017-01-18T00:04:57.782Z,1009.33
2017-01-18T00:05:38.433Z,1009.37
2017-01-18T00:06:19.115Z,1009.35
2017-01-18T00:06:59.748Z,1009.35
2017-01-18T00:07:40.429Z,1009.34
2017-01-18T00:08:21.065Z,1009.35
2017-01-18T00:09:01.701Z,1009.32
2017-01-18T00:09:42.407Z,1009.31
2017-01-18T00:10:23.043Z,1009.3
2017-01-18T00:11:03.743Z,1009.3
2017-01-18T00:11:44.329Z,1009.27
2017-01-18T00:12:24.999Z,1009.28
2017-01-18T00:13:05.646Z,1009.27
2017-01-18T00:13:46.292Z,1009.26
2017-01-18T00:14:27.015Z,1009.27
2017-01-18T00:15:07.654Z,1009.25
2017-01-18T00:15:48.298Z,1009.28
2017-01-18T00:16:28.987Z,1009.25
2017-01-18T00:17:09.647Z,1009.29
2017-01-18T00:17:50.287Z,1009.26
2017-01-18T00:18:30.917Z,1009.25
2017-01-18T00:19:11.581Z,1009.29
2017-01-18T00:19:52.226Z,1009.25
2017-01-18T00:20:32.951Z,1009.26
2017-01-18T00:21:13.642Z,1009.31
2017-01-18T00:21:54.330Z,1009.27
2017-01-18T00:22:34.980Z,1009.3
2017-01-18T00:23:15.715Z,1009.27
2017-01-18T00:23:56.386Z,1009.28
2017-01-18T00:24:37.052Z,1009.28
2017-01-18T00:25:17.751Z,1009.31
2017-01-18T00:25:58.416Z,1009.32
2017-01-18T00:26:39.142Z,1009.3
2017-01-18T00:27:19.720Z,1009.29
2017-01-18T00:28:00.389Z,1009.27
2017-01-18T00:28:41.062Z,1009.27
2017-01-18T00:29:21.683Z,1009.28
2017-01-18T00:30:02.315Z,1009.2
2017-01-18T00:30:43.027Z,1009.27
2017-01-18T00:31:23.670Z,1009.28
2017-01-18T00:32:04.389Z,1009.24
2017-01-18T00:32:45.095Z,1009.23
2017-01-18T00:33:25.728Z,1009.25
2017-01-18T00:34:06.445Z,1009.27
2017-01-18T00:34:47.101Z,1009.21
2017-01-18T00:35:27.771Z,1009.27
2017-01-18T00:36:08.415Z,1009.18
2017-01-18T00:36:49.046Z,1009.18
2017-01-18T00:37:29.683Z,1009.24
2017-01-18T00:38:10.319Z,1009.23
2017-01-18T00:38:50.972Z,1009.23
2017-01-18T00:39:31.675Z,1009.22
2017-01-18T00:40:12.313Z,1009.21
2017-01-18T00:40:53.038Z,1009.18
2017-01-18T00:41:33.684Z,1009.19
2017-01-18T00:42:14.320Z,1009.18
2017-01-18T00:42:54.948Z,1009.2
2017-01-18T00:43:35.625Z,1009.22
2017-01-18T00:44:16.257Z,1009.21
2017-01-18T00:44:56.992Z,1009.21
2017-01-18T00:45:37.717Z,1009.2
2017-01-18T00:46:18.411Z,1009.16
2017-01-18T00:46:59.047Z,1009.2
2017-01-18T00:47:39.753Z,1009.21
2017-01-18T00:48:20.417Z,1009.21
2017-01-18T00:49:01.068Z,1009.19
2017-01-18T00:49:41.782Z,1009.2
2017-01-18T00:50:22.453Z,1009.2
2017-01-18T00:51:03.114Z,1009.19
2017-01-18T00:51:43.742Z,1009.19
2017-01-18T00:52:24.371Z,1009.2
2017-01-18T00:53:05.036Z,1009.15
2017-01-18T00:53:45.745Z,1009.18
2017-01-18T00:54:26.478Z,1009.16
2017-01-18T00:55:07.150Z,1009.2
2017-01-18T00:55:47.778Z,1009.2
2017-01-18T00:56:28.402Z,1009.19
2017-01-18T00:57:09.167Z,1009.21
2017-01-18T00:57:49.835Z,1009.2
2017-01-18T00:58:30.464Z,1009.22
2017-01-18T00:59:11.218Z,1009.22
2017-01-18T00:59:51.860Z,1009.21
2017-01-18T01:00:32.494Z,1009.21
2017-01-18T01:01:13.219Z,1009.25
2017-01-18T01:01:53.870Z,1009.23
2017-01-18T01:02:34.512Z,1009.23
2017-01-18T01:03:15.158Z,1009.23
2017-01-18T01:03:55.797Z,1009.26
2017-01-18T01:04:36.447Z,1009.24
2017-01-18T01:05:17.169Z,1009.26
2017-01-18T01:05:57.834Z,1009.22
2017-01-18T01:06:38.490Z,1009.21
2017-01-18T01:07:19.129Z,1009.17
2017-01-18T01:07:59.829Z,1009.19
2017-01-18T01:08:40.543Z,1009.18
2017-01-18T01:09:21.184Z,1009.2
2017-01-18T01:10:01.897Z,1009.16
2017-01-18T01:10:42.530Z,1009.19
2017-01-18T01:11:23.163Z,1009.16
2017-01-18T01:12:03.829Z,1009.21
2017-01-18T01:12:44.493Z,1009.22
2017-01-18T01:13:25.118Z,1009.22
2017-01-18T01:14:05.824Z,1009.24
2017-01-18T01:14:46.539Z,1009.18
2017-01-18T01:15:27.185Z,1009.16
2017-01-18T01:16:07.835Z,1009.18
2017-01-18T01:16:48.474Z,1009.18
2017-01-18T01:17:29.120Z,1009.14
2017-01-18T01:18:09.772Z,1009.17
2017-01-18T01:18:50.430Z,1009.18
2017-01-18T01:19:31.090Z,1009.2
2017-01-18T01:20:11.738Z,1009.19
2017-01-18T01:20:52.475Z,1009.21
2017-01-18T01:21:33.181Z,1009.2
2017-01-18T01:22:13.824Z,1009.17
2017-01-18T01:22:54.514Z,1009.22
2017-01-18T01:23:35.184Z,1009.22
2017-01-18T01:24:15.885Z,1009.21
2017-01-18T01:24:56.537Z,1009.28
2017-01-18T01:25:37.186Z,1009.21
2017-01-18T01:26:17.830Z,1009.24
2017-01-18T01:26:58.461Z,1009.24
2017-01-18T01:27:39.187Z,1009.28
2017-01-18T01:28:19.897Z,1009.29
2017-01-18T01:29:00.534Z,1009.25
2017-01-18T01:29:41.249Z,1009.25
2017-01-18T01:30:21.911Z,1009.22
2017-01-18T01:31:02.591Z,1009.22
2017-01-18T01:31:43.216Z,1009.3
2017-01-18T01:32:23.919Z,1009.29
2017-01-18T01:33:04.558Z,1009.25
2017-01-18T01:33:45.196Z,1009.27
2017-01-18T01:34:25.897Z,1009.29
2017-01-18T01:35:06.555Z,1009.28
2017-01-18T01:35:47.190Z,1009.27
2017-01-18T01:36:27.859Z,1009.25
2017-01-18T01:37:08.530Z,1009.26
2017-01-18T01:37:49.162Z,1009.21
2017-01-18T01:38:29.914Z,1009.3
2017-01-18T01:39:10.567Z,1009.22
2017-01-18T01:39:51.272Z,1009.27
2017-01-18T01:40:31.902Z,1009.24
2017-01-18T01:41:12.619Z,1009.26
2017-01-18T01:41:53.422Z,1009.28
2017-01-18T01:42:34.093Z,1009.25
2017-01-18T01:43:14.667Z,1009.28
2017-01-18T01:43:55.332Z,1009.31
2017-01-18T01:44:35.979Z,1009.28
2017-01-18T01:45:16.618Z,1009.3
2017-01-18T01:45:57.297Z,1009.27
2017-01-18T01:46:37.960Z,1009.28
2017-01-18T01:47:18.609Z,1009.22
2017-01-18T01:47:59.240Z,1009.23
2017-01-18T01:48:39.925Z,1009.22
2017-01-18T01:49:20.547Z,1009.21
2017-01-18T01:50:01.284Z,1009.24
2017-01-18T01:50:41.940Z,1009.23
2017-01-18T01:51:22.574Z,1009.2
2017-01-18T01:52:03.225Z,1009.21
2017-01-18T01:52:43.965Z,1009.22
2017-01-18T01:53:24.630Z,1009.24
2017-01-18T01:54:05.272Z,1009.21
2017-01-18T01:54:45.909Z,1009.22
2017-01-18T01:55:26.616Z,1009.26
2017-01-18T01:56:07.273Z,1009.22
2017-01-18T01:56:48.007Z,1009.23
2017-01-18T01:57:28.725Z,1009.28
2017-01-18T01:58:09.355Z,1009.27
2017-01-18T01:58:50.026Z,1009.26
2017-01-18T01:59:30.651Z,1009.24
2017-01-18T02:00:11.288Z,1009.28
2017-01-18T02:00:51.987Z,1009.29
2017-01-18T02:01:32.730Z,1009.28
2017-01-18T02:02:13.380Z,1009.32
2017-01-18T02:02:54.009Z,1009.34
2017-01-18T02:03:34.740Z,1009.31
2017-01-18T02:04:15.400Z,1009.33
2017-01-18T02:04:56.032Z,1009.36
2017-01-18T02:05:36.691Z,1009.34
2017-01-18T02:06:17.400Z,1009.39
2017-01-18T02:06:58.027Z,1009.42
2017-01-18T02:07:38.724Z,1009.42
2017-01-18T02:08:19.357Z,1009.44
2017-01-18T02:09:00.012Z,1009.41
2017-01-18T02:09:40.655Z,1009.45
2017-01-18T02:10:21.375Z,1009.39
2017-01-18T02:11:02.042Z,1009.41
2017-01-18T02:11:42.676Z,1009.42
2017-01-18T02:12:23.385Z,1009.4
2017-01-18T02:13:04.118Z,1009.46
2017-01-18T02:13:44.755Z,1009.47
2017-01-18T02:14:25.432Z,1009.44
2017-01-18T02:15:06.086Z,1009.41
2017-01-18T02:15:46.740Z,1009.35
2017-01-18T02:16:27.380Z,1009.42
2017-01-18T02:17:08.042Z,1009.4
2017-01-18T02:17:48.719Z,1009.43
2017-01-18T02:18:29.361Z,1009.45
2017-01-18T02:19:09.989Z,1009.46
2017-01-18T02:19:50.641Z,1009.48
2017-01-18T02:20:31.295Z,1009.47
2017-01-18T02:21:11.922Z,1009.49
2017-01-18T02:21:52.629Z,1009.44
2017-01-18T02:22:33.269Z,1009.45
2017-01-18T02:23:13.964Z,1009.48
2017-01-18T02:23:54.633Z,1009.45
2017-01-18T02:24:35.267Z,1009.45
2017-01-18T02:25:15.911Z,1009.43
2017-01-18T02:25:56.596Z,1009.46
2017-01-18T02:26:37.226Z,1009.45
2017-01-18T02:27:17.923Z,1009.49
2017-01-18T02:27:58.695Z,1009.48
2017-01-18T02:28:39.349Z,1009.44
2017-01-18T02:29:19.989Z,1009.48
2017-01-18T02:30:00.690Z,1009.48
2017-01-18T02:30:41.356Z,1009.44
2017-01-18T02:31:21.983Z,1009.5
2017-01-18T02:32:02.708Z,1009.45
2017-01-18T02:32:43.329Z,1009.43
2017-01-18T02:33:23.960Z,1009.4
2017-01-18T02:34:04.644Z,1009.37
2017-01-18T02:34:45.414Z,1009.43
2017-01-18T02:35:26.128Z,1009.41
2017-01-18T02:36:06.756Z,1009.43
2017-01-18T02:36:47.449Z,1009.39
2017-01-18T02:37:28.208Z,1009.49
2017-01-18T02:38:08.888Z,1009.4
2017-01-18T02:38:49.489Z,1009.37
2017-01-18T02:39:30.131Z,1009.39
2017-01-18T02:40:10.825Z,1009.33
2017-01-18T02:40:51.462Z,1009.38
2017-01-18T02:41:32.095Z,1009.41
2017-01-18T02:42:12.797Z,1009.45
2017-01-18T02:42:53.439Z,1009.4
2017-01-18T02:43:34.165Z,1009.38
2017-01-18T02:44:14.818Z,1009.36
2017-01-18T02:44:55.441Z,1009.37
2017-01-18T02:45:36.070Z,1009.43
2017-01-18T02:46:16.703Z,1009.38
2017-01-18T02:46:57.338Z,1009.41
2017-01-18T02:47:38.022Z,1009.39
2017-01-18T02:48:18.707Z,1009.39
2017-01-18T02:48:59.344Z,1009.39
2017-01-18T02:49:40.024Z,1009.37
2017-01-18T02:50:20.649Z,1009.37
2017-01-18T02:51:01.278Z,1009.36
2017-01-18T02:51:42.481Z,1009.39
2017-01-18T02:52:23.124Z,1009.37
2017-01-18T02:53:03.797Z,1009.4
2017-01-18T02:53:44.526Z,1009.36
2017-01-18T02:54:25.146Z,1009.38
2017-01-18T02:55:05.817Z,1009.42
2017-01-18T02:55:46.482Z,1009.41
2017-01-18T02:56:27.109Z,1009.42
2017-01-18T02:57:07.743Z,1009.42
2017-01-18T02:57:48.482Z,1009.41
2017-01-18T02:58:29.129Z,1009.36
2017-01-18T02:59:09.773Z,1009.39
2017-01-18T02:59:50.408Z,1009.34
2017-01-18T03:00:31.057Z,1009.36
2017-01-18T03:01:11.695Z,1009.36
2017-01-18T03:01:52.449Z,1009.37
2017-01-18T03:02:33.181Z,1009.35
2017-01-18T03:03:13.824Z,1009.34
2017-01-18T03:03:54.471Z,1009.31
2017-01-18T03:04:35.205Z,1009.34
2017-01-18T03:05:15.919Z,1009.33
2017-01-18T03:05:56.551Z,1009.33
2017-01-18T03:06:37.267Z,1009.32
2017-01-18T03:07:17.974Z,1009.31
2017-01-18T03:07:58.598Z,1009.33
2017-01-18T03:08:39.220Z,1009.37
2017-01-18T03:09:19.909Z,1009.35
2017-01-18T03:10:00.553Z,1009.33
2017-01-18T03:10:41.183Z,1009.33
2017-01-18T03:11:21.832Z,1009.36
2017-01-18T03:12:02.491Z,1009.34
2017-01-18T03:12:43.102Z,1009.35
2017-01-18T03:13:23.738Z,1009.35
2017-01-18T03:14:04.367Z,1009.37
2017-01-18T03:14:45.105Z,1009.39
2017-01-18T03:15:25.737Z,1009.4
2017-01-18T03:16:06.449Z,1009.37
2017-01-18T03:16:47.088Z,1009.39
2017-01-18T03:17:27.718Z,1009.39
2017-01-18T03:18:08.363Z,1009.41
2017-01-18T03:18:49.004Z,1009.43
2017-01-18T03:19:29.706Z,1009.35
2017-01-18T03:20:10.335Z,1009.38
2017-01-18T03:20:50.980Z,1009.39
2017-01-18T03:21:31.664Z,1009.37
2017-01-18T03:22:12.290Z,1009.37
2017-01-18T03:22:52.938Z,1009.31
2017-01-18T03:23:33.588Z,1009.38
2017-01-18T03:24:14.311Z,1009.38
2017-01-18T03:24:54.936Z,1009.39
2017-01-18T03:25:35.612Z,1009.37
2017-01-18T03:26:16.353Z,1009.39
2017-01-18T03:26:57.026Z,1009.38
2017-01-18T03:27:37.668Z,1009.36
2017-01-18T03:28:18.375Z,1009.35
2017-01-18T03:28:59.033Z,1009.33
2017-01-18T03:29:39.663Z,1009.36
2017-01-18T03:30:20.325Z,1009.31
2017-01-18T03:31:00.953Z,1009.29
2017-01-18T03:31:41.594Z,1009.28
2017-01-18T03:32:22.226Z,1009.31
2017-01-18T03:33:02.886Z,1009.28
2017-01-18T03:33:43.521Z,1009.34
2017-01-18T03:34:24.144Z,1009.34
2017-01-18T03:35:04.823Z,1009.32
2017-01-18T03:35:45.455Z,1009.33
2017-01-18T03:36:26.200Z,1009.32
2017-01-18T03:37:06.850Z,1009.33
2017-01-18T03:37:47.508Z,1009.36
2017-01-18T03:38:28.145Z,1009.36
2017-01-18T03:39:08.857Z,1009.3
2017-01-18T03:39:49.539Z,1009.34
2017-01-18T03:40:30.170Z,1009.36
2017-01-18T03:41:10.908Z,1009.36
2017-01-18T03:41:51.537Z,1009.36
2017-01-18T03:42:32.177Z,1009.35
2017-01-18T03:43:12.821Z,1009.31
2017-01-18T03:43:53.457Z,1009.42
2017-01-18T03:44:34.083Z,1009.38
2017-01-18T03:45:14.756Z,1009.29
2017-01-18T03:45:55.430Z,1009.26
2017-01-18T03:46:36.063Z,1009.34
2017-01-18T03:47:16.794Z,1009.27
2017-01-18T03:47:57.421Z,1009.24
2017-01-18T03:48:38.133Z,1009.3
2017-01-18T03:49:18.782Z,1009.31
2017-01-18T03:49:59.412Z,1009.31
2017-01-18T03:50:40.107Z,1009.3
2017-01-18T03:51:20.729Z,1009.33
2017-01-18T03:52:01.469Z,1009.34
2017-01-18T03:52:42.095Z,1009.23
2017-01-18T03:53:22.730Z,1009.28
2017-01-18T03:54:03.373Z,1009.33
2017-01-18T03:54:44.051Z,1009.35
2017-01-18T03:55:24.687Z,1009.35
2017-01-18T03:56:05.317Z,1009.23
2017-01-18T03:56:46.013Z,1009.27
2017-01-18T03:57:26.639Z,1009.29
2017-01-18T03:58:07.271Z,1009.34
2017-01-18T03:58:47.934Z,1009.26
2017-01-18T03:59:28.569Z,1009.29
2017-01-18T04:00:09.304Z,1009.25
2017-01-18T04:00:50.005Z,1009.26
2017-01-18T04:01:30.635Z,1009.27
2017-01-18T04:02:11.270Z,1009.34
2017-01-18T04:02:51.900Z,1009.25
2017-01-18T04:03:32.589Z,1009.32
2017-01-18T04:04:13.223Z,1009.32
2017-01-18T04:04:53.848Z,1009.32
2017-01-18T04:05:34.502Z,1009.37
2017-01-18T04:06:15.147Z,1009.35
2017-01-18T04:06:55.841Z,1009.4
2017-01-18T04:07:36.497Z,1009.37
2017-01-18T04:08:17.117Z,1009.4
2017-01-18T04:08:57.758Z,1009.32
2017-01-18T04:09:38.485Z,1009.38
2017-01-18T04:10:19.122Z,1009.37
2017-01-18T04:10:59.835Z,1009.35
2017-01-18T04:11:40.517Z,1009.34
2017-01-18T04:12:21.143Z,1009.49
2017-01-18T04:13:01.771Z,1009.35
2017-01-18T04:13:42.481Z,1009.37
2017-01-18T04:14:23.132Z,1009.39
2017-01-18T04:15:03.767Z,1009.4
2017-01-18T04:15:44.433Z,1009.42
2017-01-18T04:16:25.061Z,1009.37
2017-01-18T04:17:05.699Z,1009.36
2017-01-18T04:17:46.417Z,1009.32
2017-01-18T04:18:27.055Z,1009.36
2017-01-18T04:19:07.702Z,1009.34
2017-01-18T04:19:48.342Z,1009.33
2017-01-18T04:20:28.974Z,1009.35
2017-01-18T04:21:09.638Z,1009.29
2017-01-18T04:21:50.271Z,1009.3
2017-01-18T04:22:30.987Z,1009.25
2017-01-18T04:23:11.610Z,1009.33
2017-01-18T04:23:52.313Z,1009.3
2017-01-18T04:24:33.036Z,1009.31
2017-01-18T04:25:13.682Z,1009.37
2017-01-18T04:25:54.329Z,1009.33
2017-01-18T04:26:34.955Z,1009.26
2017-01-18T04:27:15.606Z,1009.38
2017-01-18T04:27:56.257Z,1009.34
2017-01-18T04:28:36.897Z,1009.38
2017-01-18T04:29:17.528Z,1009.39
2017-01-18T04:29:58.145Z,1009.35
2017-01-18T04:30:38.772Z,1009.34
2017-01-18T04:31:19.410Z,1009.32
2017-01-18T04:32:00.040Z,1009.33
2017-01-18T04:32:40.663Z,1009.34
2017-01-18T04:33:21.339Z,1009.39
2017-01-18T04:34:01.987Z,1009.37
2017-01-18T04:34:42.615Z,1009.38
2017-01-18T04:35:23.266Z,1009.32
2017-01-18T04:36:03.914Z,1009.4
2017-01-18T04:36:44.550Z,1009.38
2017-01-18T04:37:25.246Z,1009.37
2017-01-18T04:38:05.891Z,1009.4
2017-01-18T04:38:46.590Z,1009.42
2017-01-18T04:39:27.317Z,1009.39
2017-01-18T04:40:07.948Z,1009.44
2017-01-18T04:40:49.548Z,1009.43
2017-01-18T04:41:31.099Z,1009.43
2017-01-18T04:42:11.721Z,1009.44
2017-01-18T04:42:52.349Z,1009.46
2017-01-18T04:43:32.978Z,1009.45
2017-01-18T04:44:13.622Z,1009.48
2017-01-18T04:44:54.290Z,1009.48
2017-01-18T04:45:34.903Z,1009.45
2017-01-18T04:46:15.532Z,1009.45
2017-01-18T04:46:56.191Z,1009.47
2017-01-18T04:47:36.830Z,1009.48
2017-01-18T04:48:17.458Z,1009.46
2017-01-18T04:48:58.129Z,1009.45
2017-01-18T04:49:38.801Z,1009.44
2017-01-18T04:50:19.439Z,1009.46
2017-01-18T04:51:00.098Z,1009.45
2017-01-18T04:51:40.833Z,1009.49
2017-01-18T04:52:21.460Z,1009.44
2017-01-18T04:53:02.110Z,1009.45
2017-01-18T04:53:42.747Z,1009.43
2017-01-18T04:54:23.378Z,1009.47
2017-01-18T04:55:04.052Z,1009.43
2017-01-18T04:55:44.769Z,1009.47
2017-01-18T04:56:25.468Z,1009.45
2017-01-18T04:57:06.111Z,1009.44
2017-01-18T04:57:46.790Z,1009.47
2017-01-18T04:58:27.426Z,1009.46
2017-01-18T04:59:08.053Z,1009.43
2017-01-18T04:59:48.765Z,1009.51
2017-01-18T05:00:29.471Z,1009.54
2017-01-18T05:01:10.101Z,1009.52
2017-01-18T05:01:50.724Z,1009.52
2017-01-18T05:02:31.345Z,1009.44
2017-01-18T05:03:11.972Z,1009.43
2017-01-18T05:03:52.726Z,1009.43
2017-01-18T05:04:33.361Z,1009.46
2017-01-18T05:05:14.012Z,1009.47
2017-01-18T05:05:54.640Z,1009.39
2017-01-18T05:06:35.373Z,1009.39
2017-01-18T05:07:16.024Z,1009.49
2017-01-18T05:07:56.649Z,1009.39
2017-01-18T05:08:37.293Z,1009.49
2017-01-18T05:09:17.954Z,1009.45
2017-01-18T05:09:58.590Z,1009.41
2017-01-18T05:10:39.221Z,1009.45
2017-01-18T05:11:19.886Z,1009.46
2017-01-18T05:12:00.501Z,1009.44
2017-01-18T05:12:41.139Z,1009.45
2017-01-18T05:13:21.808Z,1009.49
2017-01-18T05:14:02.421Z,1009.49
2017-01-18T05:14:43.079Z,1009.43
2017-01-18T05:15:23.735Z,1009.56
2017-01-18T05:16:04.357Z,1009.62
2017-01-18T05:16:45.087Z,1009.53
2017-01-18T05:17:25.745Z,1009.58
2017-01-18T05:18:06.379Z,1009.57
2017-01-18T05:18:47.025Z,1009.57
2017-01-18T05:19:27.680Z,1009.55
2017-01-18T05:20:08.312Z,1009.51
2017-01-18T05:20:48.972Z,1009.51
2017-01-18T05:21:29.643Z,1009.5
2017-01-18T05:22:10.288Z,1009.53
2017-01-18T05:22:50.913Z,1009.53
2017-01-18T05:23:31.585Z,1009.46
2017-01-18T05:24:12.228Z,1009.48
2017-01-18T05:24:52.912Z,1009.46
2017-01-18T05:25:33.563Z,1009.45
2017-01-18T05:26:14.272Z,1009.43
2017-01-18T05:26:54.921Z,1009.46
2017-01-18T05:27:35.652Z,1009.48
2017-01-18T05:28:16.342Z,1009.48
2017-01-18T05:28:56.980Z,1009.43
2017-01-18T05:29:37.607Z,1009.41
2017-01-18T05:30:18.291Z,1009.46
2017-01-18T05:30:58.918Z,1009.52
2017-01-18T05:31:39.553Z,1009.45
2017-01-18T05:32:20.222Z,1009.47
2017-01-18T05:33:00.850Z,1009.47
2017-01-18T05:33:41.572Z,1009.5
2017-01-18T05:34:22.201Z,1009.47
2017-01-18T05:35:02.835Z,1009.46
2017-01-18T05:35:43.463Z,1009.45
2017-01-18T05:36:24.153Z,1009.42
2017-01-18T05:37:04.849Z,1009.48
2017-01-18T05:37:45.490Z,1009.46
2017-01-18T05:38:26.247Z,1009.41
2017-01-18T05:39:06.955Z,1009.41
2017-01-18T05:39:47.585Z,1009.44
2017-01-18T05:40:28.305Z,1009.36
2017-01-18T05:41:08.991Z,1009.41
2017-01-18T05:41:50.459Z,1009.39
2017-01-18T05:42:31.085Z,1009.42
2017-01-18T05:43:11.799Z,1009.42
2017-01-18T05:43:52.434Z,1009.52
2017-01-18T05:44:33.065Z,1009.46
2017-01-18T05:45:13.692Z,1009.36
2017-01-18T05:45:54.316Z,1009.51
2017-01-18T05:46:34.948Z,1009.54
2017-01-18T05:47:15.576Z,1009.54
2017-01-18T05:47:56.206Z,1009.47
2017-01-18T05:48:36.884Z,1009.5
2017-01-18T05:49:17.514Z,1009.5
2017-01-18T05:49:58.168Z,1009.54
2017-01-18T05:50:38.883Z,1009.49
2017-01-18T05:51:19.593Z,1009.48
2017-01-18T05:52:00.236Z,1009.5
2017-01-18T05:52:40.864Z,1009.5
2017-01-18T05:53:21.526Z,1009.5
2017-01-18T05:54:02.169Z,1009.5
2017-01-18T05:54:42.795Z,1009.58
2017-01-18T05:55:23.420Z,1009.54
2017-01-18T05:56:04.131Z,1009.5
2017-01-18T05:56:44.782Z,1009.5
2017-01-18T05:57:25.437Z,1009.51
2017-01-18T05:58:06.061Z,1009.58
2017-01-18T05:58:46.708Z,1009.55
2017-01-18T05:59:27.419Z,1009.6
2017-01-18T06:00:08.072Z,1009.53
2017-01-18T06:00:48.704Z,1009.54
2017-01-18T06:01:29.466Z,1009.5
2017-01-18T06:02:10.085Z,1009.49
2017-01-18T06:02:50.800Z,1009.51
2017-01-18T06:03:31.350Z,1009.51
2017-01-18T06:04:11.991Z,1009.51
2017-01-18T06:04:52.656Z,1009.52
2017-01-18T06:05:33.276Z,1009.54
2017-01-18T06:06:13.914Z,1009.54
2017-01-18T06:06:54.580Z,1009.57
2017-01-18T06:07:35.196Z,1009.57
2017-01-18T06:08:15.931Z,1009.64
2017-01-18T06:08:56.562Z,1009.63
2017-01-18T06:09:37.204Z,1009.65
2017-01-18T06:10:17.831Z,1009.66
2017-01-18T06:10:58.535Z,1009.67
2017-01-18T06:11:39.184Z,1009.68
2017-01-18T06:12:19.880Z,1009.69
2017-01-18T06:13:00.550Z,1009.71
2017-01-18T06:13:43.751Z,1009.71
2017-01-18T06:14:24.459Z,1009.67
2017-01-18T06:15:05.089Z,1009.64
2017-01-18T06:15:45.739Z,1009.66
2017-01-18T06:16:26.370Z,1009.67
2017-01-18T06:17:07.000Z,1009.7
2017-01-18T06:17:47.698Z,1009.76
2017-01-18T06:18:28.410Z,1009.77
2017-01-18T06:19:09.068Z,1009.71
2017-01-18T06:19:49.680Z,1009.81
2017-01-18T06:20:30.316Z,1009.83
2017-01-18T06:21:10.938Z,1009.78
2017-01-18T06:21:51.575Z,1009.78
2017-01-18T06:22:32.218Z,1009.81
2017-01-18T06:23:12.879Z,1009.87
2017-01-18T06:23:53.554Z,1009.77
2017-01-18T06:24:34.313Z,1009.81
2017-01-18T06:25:14.949Z,1009.82
2017-01-18T06:25:55.578Z,1009.74
2017-01-18T06:26:36.212Z,1009.82
2017-01-18T06:27:16.929Z,1009.82
2017-01-18T06:27:57.557Z,1009.87
2017-01-18T06:28:38.258Z,1009.86
2017-01-18T06:29:18.882Z,1009.8
2017-01-18T06:29:59.507Z,1009.93
2017-01-18T06:30:40.166Z,1009.82
2017-01-18T06:31:20.790Z,1009.79
2017-01-18T06:32:01.423Z,1009.84
2017-01-18T06:32:42.110Z,1009.83
2017-01-18T06:33:22.739Z,1009.77
2017-01-18T06:34:03.379Z,1009.77
2017-01-18T06:34:44.095Z,1009.81
2017-01-18T06:35:24.724Z,1009.74
2017-01-18T06:36:05.360Z,1009.74
2017-01-18T06:36:46.102Z,1009.77
2017-01-18T06:37:26.819Z,1009.75
2017-01-18T06:38:07.450Z,1009.85
2017-01-18T06:38:48.072Z,1009.72
2017-01-18T06:39:28.803Z,1009.87
2017-01-18T06:40:09.569Z,1009.77
2017-01-18T06:40:50.199Z,1009.8
2017-01-18T06:41:30.920Z,1009.83
2017-01-18T06:42:11.559Z,1009.81
2017-01-18T06:42:52.222Z,1009.83
2017-01-18T06:43:32.845Z,1009.88
2017-01-18T06:44:13.535Z,1009.83
2017-01-18T06:44:54.224Z,1009.9
2017-01-18T06:45:34.849Z,1009.86
2017-01-18T06:46:15.579Z,1009.88
2017-01-18T06:46:56.223Z,1009.85
2017-01-18T06:47:36.858Z,1009.88
2017-01-18T06:48:17.554Z,1009.87
2017-01-18T06:48:58.182Z,1009.92
2017-01-18T06:49:38.823Z,1009.9
2017-01-18T06:50:19.512Z,1009.9
2017-01-18T06:51:00.242Z,1009.91
2017-01-18T06:51:40.905Z,1009.9
2017-01-18T06:52:21.534Z,1009.83
2017-01-18T06:53:02.151Z,1009.87
2017-01-18T06:53:42.837Z,1009.86
2017-01-18T06:54:23.465Z,1009.9
2017-01-18T06:55:04.182Z,1009.88
2017-01-18T06:55:44.897Z,1009.88
2017-01-18T06:56:25.523Z,1009.92
2017-01-18T06:57:06.224Z,1009.92
2017-01-18T06:57:46.867Z,1009.87
2017-01-18T06:58:27.496Z,1009.93
2017-01-18T06:59:08.136Z,1009.91
2017-01-18T06:59:48.757Z,1009.9
2017-01-18T07:00:29.389Z,1009.99
2017-01-18T07:01:10.097Z,1009.98
2017-01-18T07:01:50.729Z,1009.93
2017-01-18T07:02:31.391Z,1009.96
2017-01-18T07:03:12.000Z,1009.95
2017-01-18T07:03:52.656Z,1009.95
2017-01-18T07:04:33.370Z,1009.99
2017-01-18T07:05:14.018Z,1009.92
2017-01-18T07:05:54.654Z,1009.96
2017-01-18T07:06:35.343Z,1009.94
2017-01-18T07:07:15.970Z,1009.93
2017-01-18T07:07:56.683Z,1009.96
2017-01-18T07:08:37.359Z,1009.93
2017-01-18T07:09:17.985Z,1009.97
2017-01-18T07:09:58.597Z,1009.97
2017-01-18T07:10:39.289Z,1010
2017-01-18T07:11:19.925Z,1010.01
2017-01-18T07:12:00.646Z,1009.98
2017-01-18T07:12:41.319Z,1010
2017-01-18T07:13:22.021Z,1010.01
2017-01-18T07:14:02.660Z,1009.98
2017-01-18T07:14:43.309Z,1009.98
2017-01-18T07:15:23.945Z,1009.97
2017-01-18T07:16:04.581Z,1009.96
2017-01-18T07:16:45.272Z,1009.99
2017-01-18T07:17:25.925Z,1010
2017-01-18T07:18:06.577Z,1010
2017-01-18T07:18:47.269Z,1009.97
2017-01-18T07:19:27.934Z,1010.03
2017-01-18T07:20:08.573Z,1010.01
2017-01-18T07:20:49.206Z,1010.05
2017-01-18T07:21:29.853Z,1010.03
2017-01-18T07:22:10.497Z,1010.03
2017-01-18T07:22:51.235Z,1010.08
2017-01-18T07:23:31.909Z,1010.07
2017-01-18T07:24:12.542Z,1010.02
2017-01-18T07:24:53.170Z,1010.08
2017-01-18T07:25:33.795Z,1010.08
2017-01-18T07:26:14.423Z,1010.07
2017-01-18T07:26:55.049Z,1010.11
2017-01-18T07:27:35.770Z,1010.1
2017-01-18T07:28:17.006Z,1010.1
2017-01-18T07:28:57.731Z,1010.09
2017-01-18T07:29:38.398Z,1010.1
2017-01-18T07:30:19.037Z,1010.1
2017-01-18T07:30:59.740Z,1010.16
2017-01-18T07:31:40.365Z,1010.19
2017-01-18T07:32:20.995Z,1010.24
2017-01-18T07:33:01.700Z,1010.25
2017-01-18T07:33:42.418Z,1010.21
2017-01-18T07:34:23.061Z,1010.23
2017-01-18T07:35:03.764Z,1010.18
2017-01-18T07:35:44.394Z,1010.27
2017-01-18T07:36:25.073Z,1010.19
2017-01-18T07:37:05.647Z,1010.21
2017-01-18T07:37:46.292Z,1010.22
2017-01-18T07:38:26.909Z,1010.18
2017-01-18T07:39:07.601Z,1010.18
2017-01-18T07:39:48.231Z,1010.23
2017-01-18T07:40:28.882Z,1010.21
2017-01-18T07:41:09.483Z,1010.21
2017-01-18T07:41:50.159Z,1010.24
2017-01-18T07:42:30.855Z,1010.3
2017-01-18T07:43:11.501Z,1010.29
2017-01-18T07:43:52.135Z,1010.29
2017-01-18T07:44:32.834Z,1010.29
2017-01-18T07:45:13.476Z,1010.3
2017-01-18T07:45:54.181Z,1010.3
2017-01-18T07:46:34.832Z,1010.27
2017-01-18T07:47:15.474Z,1010.29
2017-01-18T07:47:56.145Z,1010.25
2017-01-18T07:48:36.876Z,1010.36
2017-01-18T07:49:17.535Z,1010.34
2017-01-18T07:49:58.169Z,1010.36
2017-01-18T07:50:38.886Z,1010.36
2017-01-18T07:51:19.560Z,1010.31
2017-01-18T07:52:00.204Z,1010.37
2017-01-18T07:52:40.953Z,1010.33
2017-01-18T07:53:21.607Z,1010.38
2017-01-18T07:54:02.235Z,1010.43
2017-01-18T07:54:42.870Z,1010.4
2017-01-18T07:55:23.542Z,1010.43
2017-01-18T07:56:04.185Z,1010.41
2017-01-18T07:56:44.901Z,1010.46
2017-01-18T07:57:25.546Z,1010.46
2017-01-18T07:58:06.239Z,1010.53
2017-01-18T07:58:46.883Z,1010.52
2017-01-18T07:59:27.514Z,1010.51
2017-01-18T08:00:08.163Z,1010.55
2017-01-18T08:00:48.807Z,1010.58
2017-01-18T08:01:29.433Z,1010.62
2017-01-18T08:02:10.146Z,1010.59
2017-01-18T08:02:50.781Z,1010.55
2017-01-18T08:03:31.482Z,1010.54
2017-01-18T08:04:12.238Z,1010.53
2017-01-18T08:04:52.879Z,1010.48
2017-01-18T08:05:33.600Z,1010.62
2017-01-18T08:06:14.228Z,1010.52
2017-01-18T08:06:54.955Z,1010.58
2017-01-18T08:07:35.597Z,1010.47
2017-01-18T08:08:16.317Z,1010.49
2017-01-18T08:08:56.957Z,1010.56
2017-01-18T08:09:37.570Z,1010.55
2017-01-18T08:10:18.260Z,1010.54
2017-01-18T08:10:58.918Z,1010.55
2017-01-18T08:11:39.545Z,1010.61
2017-01-18T08:12:20.274Z,1010.64
2017-01-18T08:13:00.909Z,1010.57
2017-01-18T08:13:41.622Z,1010.57